Time;durP1;ratioP1;P1;durP2;ratioP2;P2;SDS_P1;SDS_P2;PMS_P1;PMS_P2;Temp;Humidity;BMP_temperature;BMP_pressure;BME280_temperature;BME280_humidity;BME280_pressure;Samples;Min_cycle;Max_cycle;Signal;HPM_P1;HPM_P2
2021/05/05 00:02:11;;;;;;;8.50;3.93;;;12.50;54.30;;;;;;4979136;28;20496;-86
2021/05/05 00:04:38;;;;;;;8.00;3.80;;;12.50;55.50;;;;;;4979086;28;20455;-86
2021/05/05 00:07:04;;;;;;;2.27;2.07;;;13.00;53.70;;;;;;4978360;28;20456;-86
2021/05/05 00:09:31;;;;;;;10.20;5.57;;;12.50;52.20;;;;;;4978907;28;20444;-86
2021/05/05 00:11:57;;;;;;;11.80;6.30;;;12.70;53.20;;;;;;4978828;28;20479;-87
2021/05/05 00:14:25;;;;;;;6.40;4.03;;;12.90;52.70;;;;;;4979530;28;20859;-86
2021/05/05 00:16:52;;;;;;;4.67;2.90;;;12.30;53.50;;;;;;4978778;28;20439;-87
2021/05/05 00:19:18;;;;;;;6.70;3.60;;;12.30;52.70;;;;;;4978839;28;20519;-86
2021/05/05 00:21:45;;;;;;;4.10;2.90;;;12.40;52.40;;;;;;4978516;28;20491;-86
2021/05/05 00:24:12;;;;;;;12.50;5.93;;;12.50;51.90;;;;;;4978686;28;20877;-86
2021/05/05 00:26:39;;;;;;;7.87;4.87;;;13.00;52.30;;;;;;4978728;28;20475;-86
2021/05/05 00:29:06;;;;;;;3.67;3.47;;;12.90;51.50;;;;;;4978594;28;20436;-86
2021/05/05 00:31:34;;;;;;;7.40;4.50;;;12.80;51.20;;;;;;4978931;28;20650;-86
2021/05/05 00:34:00;;;;;;;3.77;2.37;;;12.80;51.90;;;;;;4978405;28;21056;-86
2021/05/05 00:36:28;;;;;;;5.77;3.10;;;12.60;51.90;;;;;;4978404;28;20543;-86
2021/05/05 00:38:55;;;;;;;11.43;5.40;;;13.10;51.20;;;;;;4978784;28;20551;-86
2021/05/05 00:41:22;;;;;;;1.83;1.80;;;13.30;50.40;;;;;;4979552;28;20604;-86
2021/05/05 00:43:48;;;;;;;20.33;8.90;;;12.50;50.10;;;;;;4979169;28;20999;-86
2021/05/05 00:46:15;;;;;;;12.10;5.77;;;12.80;50.50;;;;;;4978915;28;21012;-86
2021/05/05 00:48:42;;;;;;;17.33;7.40;;;12.70;50.60;;;;;;4978753;28;20490;-86
2021/05/05 00:51:09;;;;;;;6.10;3.13;;;13.00;50.40;;;;;;4979120;28;20560;-86
2021/05/05 00:53:39;;;;;;;9.70;4.23;;;12.80;51.20;;;;;;4978621;28;20508;-86
2021/05/05 00:56:06;;;;;;;4.73;2.80;;;12.90;50.20;;;;;;4978638;28;20466;-86
2021/05/05 00:58:33;;;;;;;8.67;4.00;;;13.20;49.20;;;;;;4978429;28;20454;-86
2021/05/05 01:01:00;;;;;;;6.00;3.27;;;13.40;48.00;;;;;;4978435;28;20444;-86
2021/05/05 01:03:26;;;;;;;2.87;2.23;;;13.30;50.00;;;;;;4978627;28;20570;-86
2021/05/05 01:05:53;;;;;;;3.10;2.27;;;13.70;48.20;;;;;;4977777;28;20542;-86
2021/05/05 01:08:22;;;;;;;3.67;2.53;;;13.50;47.70;;;;;;4976889;28;20486;-87
2021/05/05 01:10:49;;;;;;;4.47;2.93;;;13.40;47.10;;;;;;4976663;28;20549;-86
2021/05/05 01:13:16;;;;;;;7.53;2.40;;;13.90;46.90;;;;;;4976747;28;20970;-86
2021/05/05 01:15:43;;;;;;;3.83;2.40;;;13.90;46.50;;;;;;4976494;28;20488;-86
2021/05/05 01:18:10;;;;;;;3.00;2.43;;;14.00;46.20;;;;;;4976635;28;20511;-87
2021/05/05 01:20:37;;;;;;;2.93;2.33;;;14.20;46.40;;;;;;4976269;28;20443;-87
2021/05/05 01:23:04;;;;;;;2.00;1.90;;;14.50;45.10;;;;;;4976630;28;20468;-87
2021/05/05 01:25:31;;;;;;;2.13;1.97;;;14.30;46.40;;;;;;4985063;28;20498;-88
2021/05/05 01:27:57;;;;;;;2.10;1.90;;;14.30;44.40;;;;;;4995736;28;20539;-87
2021/05/05 01:30:25;;;;;;;3.33;2.50;;;14.00;45.60;;;;;;4976504;28;21068;-87
2021/05/05 01:32:51;;;;;;;2.27;2.13;;;13.90;46.80;;;;;;4975652;28;20563;-86
2021/05/05 01:35:20;;;;;;;3.30;1.93;;;14.70;46.90;;;;;;4976212;28;20491;-86
2021/05/05 01:37:48;;;;;;;1.90;1.90;;;14.40;45.70;;;;;;4974270;28;20448;-87
2021/05/05 01:40:22;;;;;;;2.67;2.07;;;14.30;45.60;;;;;;4975684;28;20797;-86
2021/05/05 01:42:48;;;;;;;1.90;1.80;;;13.90;46.50;;;;;;4975328;28;20558;-86
2021/05/05 01:45:16;;;;;;;1.80;1.77;;;13.30;47.30;;;;;;4975473;28;20455;-87
2021/05/05 01:47:42;;;;;;;3.50;2.47;;;13.40;48.00;;;;;;4975441;28;20533;-86
2021/05/05 01:50:10;;;;;;;5.43;2.00;;;13.40;48.30;;;;;;4976173;28;20436;-86
2021/05/05 01:52:36;;;;;;;2.30;2.13;;;13.50;48.00;;;;;;4976267;28;20480;-88
2021/05/05 01:55:04;;;;;;;2.60;1.90;;;13.50;48.00;;;;;;4975708;28;20456;-88
2021/05/05 01:57:42;;;;;;;2.43;1.93;;;13.10;48.10;;;;;;4975579;28;20439;-87
2021/05/05 02:00:12;;;;;;;6.00;1.90;;;13.00;48.80;;;;;;4975969;28;20557;-87
2021/05/05 02:02:39;;;;;;;4.80;1.90;;;12.90;48.80;;;;;;4975093;28;20480;-86
2021/05/05 02:05:07;;;;;;;1.90;1.80;;;12.60;49.10;;;;;;4976837;28;20535;-87
2021/05/05 02:07:34;;;;;;;3.10;1.90;;;12.60;49.60;;;;;;4998564;28;20478;-89
2021/05/05 02:10:01;;;;;;;2.00;1.90;;;12.80;49.30;;;;;;4981463;28;20451;-87
2021/05/05 02:12:29;;;;;;;3.87;1.80;;;13.20;49.70;;;;;;4976455;28;20519;-87
2021/05/05 02:14:56;;;;;;;1.90;1.80;;;12.90;49.40;;;;;;4976704;28;20468;-86
2021/05/05 02:17:23;;;;;;;2.30;2.10;;;12.90;49.50;;;;;;4975877;28;20550;-85
2021/05/05 02:19:49;;;;;;;1.97;1.90;;;13.00;49.20;;;;;;4979352;28;20453;-86
2021/05/05 02:22:16;;;;;;;1.87;1.77;;;12.40;49.30;;;;;;4982093;28;20468;-86
2021/05/05 02:24:42;;;;;;;2.47;2.17;;;12.50;50.00;;;;;;4981847;28;20450;-86
2021/05/05 02:27:09;;;;;;;5.00;2.93;;;12.90;49.10;;;;;;4982306;28;20455;-86
2021/05/05 02:29:36;;;;;;;2.83;1.90;;;13.50;47.90;;;;;;4982028;28;20455;-86
2021/05/05 02:32:07;;;;;;;1.87;1.70;;;13.30;47.90;;;;;;4985937;28;20491;-86
2021/05/05 02:34:34;;;;;;;4.90;2.67;;;12.80;47.80;;;;;;4984846;28;20496;-88
2021/05/05 02:37:01;;;;;;;2.73;1.90;;;13.20;49.50;;;;;;4983012;28;21072;-88
2021/05/05 02:39:27;;;;;;;2.50;1.70;;;13.60;47.70;;;;;;4983418;28;20559;-87
2021/05/05 02:41:54;;;;;;;1.80;1.70;;;13.40;48.20;;;;;;4981980;28;20514;-87
2021/05/05 02:44:20;;;;;;;1.90;1.90;;;13.10;48.30;;;;;;4982425;28;20458;-87
2021/05/05 02:46:47;;;;;;;2.63;1.77;;;12.60;49.60;;;;;;4994921;28;20423;-89
2021/05/05 02:49:14;;;;;;;1.80;1.70;;;12.10;50.00;;;;;;4999534;28;20767;-87
2021/05/05 02:51:41;;;;;;;2.40;2.10;;;11.90;51.30;;;;;;4982773;28;20514;-87
2021/05/05 02:54:08;;;;;;;2.80;2.00;;;11.90;51.90;;;;;;4982435;28;20456;-87
2021/05/05 02:56:35;;;;;;;3.20;1.77;;;11.80;51.80;;;;;;4982508;28;20450;-87
2021/05/05 02:59:02;;;;;;;2.57;1.80;;;11.70;52.50;;;;;;4984630;28;20446;-87
2021/05/05 03:01:29;;;;;;;3.00;1.97;;;11.60;52.70;;;;;;4984045;28;20443;-87
2021/05/05 03:03:55;;;;;;;1.90;1.90;;;11.80;52.50;;;;;;4983067;28;20479;-87
2021/05/05 03:06:23;;;;;;;3.70;2.13;;;11.70;52.60;;;;;;4982557;28;20456;-87
2021/05/05 03:08:50;;;;;;;2.63;1.93;;;12.10;51.50;;;;;;4981810;28;20446;-87
2021/05/05 03:14:11;;;;;;;1.90;1.90;;;12.10;51.50;;;;;;4981452;28;20465;-87
2021/05/05 03:16:37;;;;;;;2.27;1.80;;;12.20;51.60;;;;;;4983535;28;20421;-86
2021/05/05 03:19:05;;;;;;;3.50;2.23;;;11.90;51.30;;;;;;4983305;28;20480;-87
2021/05/05 03:21:32;;;;;;;3.53;2.13;;;11.60;52.70;;;;;;4984163;28;20445;-87
2021/05/05 03:24:02;;;;;;;4.40;2.17;;;12.00;51.60;;;;;;4982631;28;20462;-87
2021/05/05 03:26:28;;;;;;;3.00;1.90;;;12.20;51.10;;;;;;4983660;28;20509;-87
2021/05/05 03:28:55;;;;;;;3.80;1.90;;;12.10;51.50;;;;;;4985472;28;20937;-87
2021/05/05 03:31:24;;;;;;;2.90;2.10;;;12.30;51.70;;;;;;4980992;28;20485;-87
2021/05/05 03:33:50;;;;;;;2.10;1.87;;;12.40;51.00;;;;;;4981931;28;20486;-87
2021/05/05 03:36:19;;;;;;;2.90;2.00;;;12.60;50.80;;;;;;4980962;28;20849;-87
2021/05/05 03:39:00;;;;;;;2.50;2.03;;;12.70;51.50;;;;;;4980453;28;20446;-86
2021/05/05 03:41:34;;;;;;;3.50;2.10;;;12.20;50.10;;;;;;4982560;28;20991;-86
2021/05/05 03:44:01;;;;;;;2.80;2.60;;;12.50;50.60;;;;;;4979153;28;20533;-86
2021/05/05 03:46:30;;;;;;;2.67;1.93;;;12.80;50.20;;;;;;4980829;28;20455;-86
2021/05/05 03:49:01;;;;;;;1.90;1.63;;;12.20;50.50;;;;;;4979169;28;20448;-86
2021/05/05 03:51:30;;;;;;;2.93;2.10;;;11.50;51.20;;;;;;4981932;28;20531;-86
2021/05/05 03:53:57;;;;;;;7.60;2.23;;;11.90;51.30;;;;;;4981536;28;20521;-86
2021/05/05 03:56:26;;;;;;;4.70;2.10;;;12.00;51.50;;;;;;4979784;28;20440;-86
2021/05/05 03:58:52;;;;;;;2.80;2.00;;;12.00;52.40;;;;;;4979199;28;20457;-86
2021/05/05 04:01:19;;;;;;;2.90;2.20;;;12.10;52.30;;;;;;4980403;28;20552;-86
2021/05/05 04:03:46;;;;;;;2.73;2.23;;;11.90;52.30;;;;;;4980131;28;20481;-87
2021/05/05 04:06:15;;;;;;;4.63;2.30;;;11.50;53.50;;;;;;4979247;28;20629;-86
2021/05/05 04:08:41;;;;;;;4.60;2.07;;;11.50;53.10;;;;;;4979611;28;20453;-86
2021/05/05 04:11:09;;;;;;;1.80;1.73;;;11.60;52.50;;;;;;4979108;28;20484;-86
2021/05/05 04:13:36;;;;;;;2.13;1.97;;;11.90;52.30;;;;;;4979367;28;20458;-86
2021/05/05 04:16:02;;;;;;;6.30;2.30;;;12.20;51.30;;;;;;4978236;28;20459;-87
2021/05/05 04:18:29;;;;;;;3.13;2.40;;;12.30;51.70;;;;;;4979240;28;20449;-86
2021/05/05 04:21:00;;;;;;;2.07;1.93;;;12.20;51.60;;;;;;4978741;28;20451;-86
2021/05/05 04:23:27;;;;;;;5.33;2.40;;;12.20;51.80;;;;;;4978403;28;20456;-86
2021/05/05 04:25:54;;;;;;;3.27;2.30;;;12.40;53.00;;;;;;4979167;28;20425;-86
2021/05/05 04:28:22;;;;;;;2.97;2.17;;;12.20;51.20;;;;;;4979098;28;20462;-86
2021/05/05 04:30:53;;;;;;;2.93;2.10;;;12.30;51.70;;;;;;4979081;28;20483;-86
2021/05/05 04:33:20;;;;;;;6.70;2.17;;;12.60;50.40;;;;;;4977119;28;20460;-87
2021/05/05 04:35:46;;;;;;;2.97;2.20;;;12.70;49.50;;;;;;4978436;28;20483;-86
2021/05/05 04:38:15;;;;;;;6.13;2.30;;;12.50;50.00;;;;;;4979163;28;20869;-87
2021/05/05 04:40:43;;;;;;;6.10;2.07;;;12.30;50.20;;;;;;4980512;28;20971;-86
2021/05/05 04:43:12;;;;;;;3.30;2.30;;;11.90;50.80;;;;;;4980016;28;20479;-86
2021/05/05 04:45:40;;;;;;;4.83;2.33;;;11.50;51.30;;;;;;4981210;28;20460;-87
2021/05/05 04:48:09;;;;;;;7.60;2.30;;;11.30;52.30;;;;;;4978862;28;20515;-86
2021/05/05 04:50:35;;;;;;;2.63;2.03;;;11.00;53.60;;;;;;4978926;28;20460;-86
2021/05/05 04:53:02;;;;;;;3.07;2.10;;;11.10;53.90;;;;;;4979177;28;20491;-86
2021/05/05 04:55:28;;;;;;;2.03;1.80;;;10.90;55.00;;;;;;4978632;28;20440;-86
2021/05/05 04:57:55;;;;;;;3.87;2.23;;;11.30;54.80;;;;;;4979151;28;20448;-86
2021/05/05 05:00:22;;;;;;;5.20;2.10;;;11.90;51.30;;;;;;4979452;28;20476;-86
2021/05/05 05:02:49;;;;;;;3.20;2.23;;;11.60;51.00;;;;;;4979819;28;20459;-86
2021/05/05 05:05:21;;;;;;;3.70;2.13;;;11.90;50.70;;;;;;4978175;28;20449;-86
2021/05/05 05:07:48;;;;;;;3.40;2.00;;;11.70;51.00;;;;;;4979243;28;20432;-86
2021/05/05 05:10:14;;;;;;;3.83;2.50;;;11.50;52.80;;;;;;4977890;28;20465;-86
2021/05/05 05:12:42;;;;;;;5.67;2.70;;;11.30;52.70;;;;;;4976625;28;20488;-86
2021/05/05 05:15:08;;;;;;;4.33;2.27;;;11.40;52.20;;;;;;4977291;28;20443;-86
2021/05/05 05:17:35;;;;;;;1.90;1.80;;;11.50;51.70;;;;;;4976733;28;20506;-86
2021/05/05 05:20:07;;;;;;;2.50;2.20;;;11.30;51.60;;;;;;4977720;28;20502;-86
2021/05/05 05:22:34;;;;;;;3.10;2.27;;;10.70;52.60;;;;;;4979140;28;20583;-86
2021/05/05 05:25:01;;;;;;;4.33;2.23;;;11.20;53.40;;;;;;4984250;28;20439;-86
2021/05/05 05:27:28;;;;;;;4.97;2.17;;;11.20;53.20;;;;;;4997846;28;20426;-86
2021/05/05 05:29:55;;;;;;;2.27;1.90;;;11.30;52.50;;;;;;4998678;28;20434;-86
2021/05/05 05:32:22;;;;;;;3.20;2.20;;;11.00;52.60;;;;;;4999188;28;20483;-88
2021/05/05 05:34:48;;;;;;;4.30;2.20;;;10.70;53.10;;;;;;4999204;28;20453;-87
2021/05/05 05:37:16;;;;;;;4.40;2.10;;;10.50;53.90;;;;;;4999217;28;20435;-87
2021/05/05 05:39:45;;;;;;;2.90;2.33;;;10.80;54.30;;;;;;4998794;28;20469;-85
2021/05/05 05:42:11;;;;;;;2.90;2.10;;;10.60;54.20;;;;;;4992848;28;20577;-85
2021/05/05 05:44:37;;;;;;;3.53;2.00;;;10.60;53.40;;;;;;4979191;28;20417;-86
2021/05/05 05:47:04;;;;;;;2.00;1.90;;;10.90;54.60;;;;;;4979283;28;20448;-84
2021/05/05 05:49:31;;;;;;;3.97;1.90;;;11.50;51.70;;;;;;4977911;28;20814;-84
2021/05/05 05:51:57;;;;;;;2.27;2.00;;;11.30;51.80;;;;;;4979321;28;20996;-86
2021/05/05 05:54:25;;;;;;;1.80;1.70;;;11.40;51.50;;;;;;4976188;28;20454;-85
2021/05/05 05:56:51;;;;;;;2.00;1.70;;;11.00;52.80;;;;;;4977245;28;20457;-85
2021/05/05 05:59:20;;;;;;;3.33;1.90;;;11.20;51.10;;;;;;4977674;28;20925;-86
2021/05/05 06:01:46;;;;;;;2.00;1.80;;;11.40;53.40;;;;;;4977049;28;20478;-85
2021/05/05 06:04:15;;;;;;;2.10;1.97;;;11.60;51.00;;;;;;4979131;28;20454;-85
2021/05/05 06:06:44;;;;;;;3.80;2.17;;;11.70;50.90;;;;;;4978856;28;20938;-85
2021/05/05 06:09:11;;;;;;;3.27;2.20;;;11.70;50.50;;;;;;4977765;28;20447;-85
2021/05/05 06:11:38;;;;;;;1.93;1.90;;;11.80;50.50;;;;;;4976416;28;20483;-85
2021/05/05 06:14:05;;;;;;;1.90;1.80;;;11.80;51.20;;;;;;4977339;28;20478;-85
2021/05/05 06:16:31;;;;;;;4.87;2.40;;;12.10;48.70;;;;;;4977511;28;20788;-85
2021/05/05 06:18:58;;;;;;;3.53;1.87;;;11.90;49.30;;;;;;4978054;28;20447;-85
2021/05/05 06:21:24;;;;;;;2.90;2.13;;;12.00;49.20;;;;;;4976776;28;20443;-85
2021/05/05 06:23:51;;;;;;;2.00;1.90;;;12.20;48.60;;;;;;4978030;28;20474;-85
2021/05/05 06:26:18;;;;;;;2.30;2.00;;;12.20;49.60;;;;;;4977257;28;20535;-85
2021/05/05 06:28:45;;;;;;;3.83;2.60;;;13.00;47.90;;;;;;4976673;28;20933;-85
2021/05/05 06:31:12;;;;;;;2.67;2.50;;;12.70;48.50;;;;;;4989024;28;20487;-85
2021/05/05 06:33:39;;;;;;;2.40;2.00;;;13.00;47.40;;;;;;4997247;28;20456;-86
2021/05/05 06:36:06;;;;;;;2.83;2.10;;;13.20;46.50;;;;;;4998431;28;20436;-87
2021/05/05 06:38:33;;;;;;;2.30;2.00;;;13.20;47.50;;;;;;4998471;28;20416;-86
2021/05/05 06:40:59;;;;;;;2.10;1.93;;;13.20;46.60;;;;;;4998388;28;20431;-86
2021/05/05 06:43:36;;;;;;;3.57;2.10;;;13.60;45.50;;;;;;4994312;28;20472;-86
2021/05/05 06:46:04;;;;;;;3.50;2.60;;;13.90;44.40;;;;;;4985808;28;20444;-85
2021/05/05 06:48:31;;;;;;;3.43;2.30;;;14.40;44.40;;;;;;4978828;28;20455;-85
2021/05/05 06:50:57;;;;;;;4.43;2.40;;;14.50;44.00;;;;;;4975506;28;20915;-85
2021/05/05 06:53:24;;;;;;;4.07;2.83;;;13.60;43.70;;;;;;4977158;28;20491;-85
2021/05/05 06:55:50;;;;;;;3.80;2.40;;;13.50;45.50;;;;;;4976388;28;20487;-85
2021/05/05 06:58:19;;;;;;;2.87;2.30;;;13.00;46.40;;;;;;4977275;28;20522;-85
2021/05/05 07:00:46;;;;;;;5.10;2.47;;;14.20;46.50;;;;;;4976847;28;20449;-85
2021/05/05 07:03:13;;;;;;;7.53;2.67;;;14.90;42.30;;;;;;4975864;28;20528;-86
2021/05/05 07:05:40;;;;;;;6.30;2.50;;;15.60;40.60;;;;;;4976207;28;20454;-85
2021/05/05 07:08:06;;;;;;;3.33;2.30;;;15.60;39.70;;;;;;4982360;28;20455;-85
2021/05/05 07:10:33;;;;;;;2.60;2.00;;;14.90;39.90;;;;;;4997429;28;20424;-85
2021/05/05 07:12:59;;;;;;;8.37;2.83;;;14.30;43.60;;;;;;4995771;28;20499;-85
2021/05/05 07:15:26;;;;;;;8.43;3.30;;;14.50;42.80;;;;;;4998267;28;20453;-85
2021/05/05 07:17:52;;;;;;;15.33;3.23;;;15.80;38.60;;;;;;4997223;28;20534;-85
2021/05/05 07:20:20;;;;;;;7.17;2.70;;;16.50;37.80;;;;;;4990521;28;20463;-86
2021/05/05 07:22:46;;;;;;;3.10;2.60;;;16.90;38.40;;;;;;4979459;28;20840;-85
2021/05/05 07:25:13;;;;;;;5.23;2.40;;;16.80;37.40;;;;;;4980214;28;20482;-86
2021/05/05 07:27:39;;;;;;;5.23;3.00;;;17.50;37.90;;;;;;4979175;28;20586;-85
2021/05/05 07:30:08;;;;;;;8.00;2.77;;;17.80;34.90;;;;;;4978821;28;20547;-86
2021/05/05 07:32:34;;;;;;;7.10;2.83;;;17.90;33.50;;;;;;4979811;28;20487;-86
2021/05/05 07:35:03;;;;;;;4.13;2.43;;;17.90;34.50;;;;;;4979240;28;21088;-86
2021/05/05 07:37:43;;;;;;;4.43;2.40;;;17.80;35.10;;;;;;4979652;28;20754;-85
2021/05/05 07:45:58;;;;;;;8.10;3.10;;;18.20;32.80;;;;;;4966312;28;20502;-86
2021/05/05 07:48:28;;;;;;;7.20;2.37;;;17.80;33.10;;;;;;4979189;28;20424;-85
2021/05/05 07:50:55;;;;;;;15.67;2.93;;;17.30;34.90;;;;;;4994775;28;20435;-85
2021/05/05 07:53:23;;;;;;;13.87;3.00;;;17.10;34.80;;;;;;4998746;28;20467;-85
2021/05/05 07:55:51;;;;;;;9.03;2.67;;;16.50;35.10;;;;;;4998484;28;20483;-85
2021/05/05 07:58:17;;;;;;;7.57;2.60;;;16.10;35.30;;;;;;5001044;28;20432;-86
2021/05/05 08:00:44;;;;;;;7.33;2.73;;;16.30;36.10;;;;;;4998172;28;20420;-85
2021/05/05 08:03:11;;;;;;;11.00;2.93;;;15.70;34.50;;;;;;4997407;28;20495;-86
2021/05/05 08:05:37;;;;;;;5.00;2.90;;;15.40;33.40;;;;;;4997333;28;20439;-86
2021/05/05 08:08:04;;;;;;;5.83;2.60;;;15.30;37.60;;;;;;4999064;28;20458;-86
2021/05/05 08:10:31;;;;;;;12.93;3.40;;;15.50;33.50;;;;;;4998591;28;20466;-86
2021/05/05 08:12:58;;;;;;;7.00;2.90;;;14.70;32.40;;;;;;4997263;28;20494;-85
2021/05/05 08:15:27;;;;;;;8.07;3.07;;;15.30;33.70;;;;;;4997086;28;20452;-85
2021/05/05 08:17:53;;;;;;;8.30;2.97;;;16.30;36.30;;;;;;4996437;28;20519;-85
2021/05/05 08:20:19;;;;;;;8.03;2.80;;;16.60;32.10;;;;;;4996028;28;20463;-86
2021/05/05 08:22:46;;;;;;;9.57;2.97;;;17.10;35.30;;;;;;4997589;28;20475;-85
2021/05/05 08:25:13;;;;;;;8.83;2.70;;;17.60;29.00;;;;;;4997373;28;20435;-85
2021/05/05 08:27:40;;;;;;;6.83;2.90;;;16.40;29.60;;;;;;4997501;28;20460;-85
2021/05/05 08:30:07;;;;;;;7.37;2.73;;;15.70;31.60;;;;;;4997069;28;20455;-85
2021/05/05 08:32:34;;;;;;;6.60;2.80;;;15.50;31.00;;;;;;4997617;28;20479;-85
2021/05/05 08:35:00;;;;;;;7.23;2.70;;;15.30;33.10;;;;;;4997080;28;20448;-86
2021/05/05 08:37:27;;;;;;;8.00;2.73;;;15.10;35.30;;;;;;4995918;28;20453;-86
2021/05/05 08:39:53;;;;;;;7.30;2.67;;;14.60;35.60;;;;;;5000095;28;20438;-86
2021/05/05 08:42:19;;;;;;;7.80;3.00;;;15.40;36.70;;;;;;4980423;28;20902;-86
2021/05/05 08:44:48;;;;;;;4.40;2.47;;;16.00;34.70;;;;;;4980905;28;20519;-86
2021/05/05 08:47:16;;;;;;;2.40;2.20;;;15.50;34.10;;;;;;4980540;28;20497;-86
2021/05/05 08:49:43;;;;;;;4.70;2.50;;;15.20;34.10;;;;;;4979392;28;20454;-86
2021/05/05 08:52:10;;;;;;;6.73;2.50;;;15.90;34.10;;;;;;4979143;28;20538;-86
2021/05/05 08:54:36;;;;;;;5.87;2.63;;;16.50;33.60;;;;;;4988360;28;20440;-86
2021/05/05 08:57:03;;;;;;;8.10;2.40;;;17.00;31.30;;;;;;4996949;28;20444;-86
2021/05/05 08:59:32;;;;;;;15.10;3.30;;;16.70;30.30;;;;;;4997096;28;20437;-86
2021/05/05 09:02:00;;;;;;;10.07;2.87;;;16.50;27.50;;;;;;4997139;28;20448;-86
2021/05/05 09:04:26;;;;;;;6.37;2.50;;;16.80;28.90;;;;;;4997563;28;20444;-85
2021/05/05 09:06:55;;;;;;;10.67;2.80;;;16.70;28.00;;;;;;4997106;28;20435;-86
2021/05/05 09:09:39;;;;;;;6.80;2.80;;;16.70;30.40;;;;;;4996972;28;20429;-86
2021/05/05 09:12:16;;;;;;;5.03;2.50;;;17.10;30.30;;;;;;4996220;28;20486;-87
2021/05/05 09:14:59;;;;;;;4.80;2.57;;;17.40;28.10;;;;;;4997109;28;20434;-85
2021/05/05 09:17:29;;;;;;;7.57;2.50;;;17.50;29.30;;;;;;4995848;28;20454;-85
2021/05/05 09:20:22;;;;;;;5.07;2.47;;;17.40;29.10;;;;;;4998460;28;20893;-86
2021/05/05 09:22:54;;;;;;;7.33;2.93;;;17.00;28.30;;;;;;4998272;28;20483;-85
2021/05/05 09:25:23;;;;;;;5.20;2.70;;;16.20;29.20;;;;;;4988414;28;20528;-86
2021/05/05 09:28:12;;;;;;;6.67;2.77;;;16.20;29.40;;;;;;4984858;28;20852;-85
2021/05/05 09:30:40;;;;;;;7.73;3.47;;;15.80;32.40;;;;;;4979695;28;20459;-85
2021/05/05 09:33:08;;;;;;;4.07;2.70;;;15.70;30.50;;;;;;4979363;28;20496;-85
2021/05/05 09:35:36;;;;;;;5.83;3.40;;;16.00;30.80;;;;;;4977538;28;20950;-85
2021/05/05 09:38:06;;;;;;;9.70;2.93;;;15.70;29.40;;;;;;4978222;28;20483;-85
2021/05/05 09:40:33;;;;;;;8.03;3.77;;;15.20;30.40;;;;;;4977920;28;20458;-85
2021/05/05 09:43:15;;;;;;;5.77;2.60;;;15.10;30.20;;;;;;4976884;28;20506;-85
2021/05/05 09:45:41;;;;;;;6.30;2.67;;;15.50;30.70;;;;;;4982527;28;20471;-85
2021/05/05 09:48:10;;;;;;;5.00;2.67;;;15.60;30.30;;;;;;4978277;28;20458;-85
2021/05/05 09:50:39;;;;;;;7.97;2.83;;;15.60;29.70;;;;;;4979410;28;20448;-85
2021/05/05 09:53:17;;;;;;;6.57;2.90;;;15.60;29.80;;;;;;4977752;28;20502;-86
2021/05/05 09:55:44;;;;;;;9.00;2.90;;;16.00;28.60;;;;;;4978559;28;20451;-86
2021/05/05 09:58:25;;;;;;;8.07;2.80;;;16.00;29.30;;;;;;4978200;28;20474;-86
2021/05/05 10:01:10;;;;;;;7.27;2.37;;;16.00;28.00;;;;;;4993357;28;20432;-86
2021/05/05 10:03:38;;;;;;;5.93;2.90;;;15.90;27.00;;;;;;4989218;28;20475;-86
2021/05/05 10:06:22;;;;;;;7.23;2.63;;;15.80;27.00;;;;;;4978405;28;20854;-86
2021/05/05 10:08:51;;;;;;;3.93;2.33;;;15.70;26.90;;;;;;4980071;28;20479;-86
2021/05/05 10:11:23;;;;;;;5.37;2.60;;;15.10;26.50;;;;;;4977956;28;20430;-86
2021/05/05 10:13:52;;;;;;;7.63;2.73;;;15.10;31.50;;;;;;4977672;28;20482;-86
2021/05/05 10:16:20;;;;;;;11.13;3.40;;;14.70;26.80;;;;;;4977452;28;20499;-87
2021/05/05 10:18:48;;;;;;;7.23;2.67;;;14.60;28.60;;;;;;4977351;28;20447;-85
2021/05/05 10:21:15;;;;;;;6.00;2.90;;;15.10;28.30;;;;;;4978209;28;20478;-85
2021/05/05 10:23:43;;;;;;;8.57;2.93;;;15.10;26.50;;;;;;4978160;28;20519;-86
2021/05/05 10:26:11;;;;;;;4.43;2.60;;;15.20;28.80;;;;;;4977888;28;20535;-86
2021/05/05 10:28:39;;;;;;;3.60;2.37;;;15.20;27.20;;;;;;4978244;28;20449;-85
2021/05/05 10:31:09;;;;;;;10.40;2.90;;;15.20;28.40;;;;;;4977602;28;20531;-86
2021/05/05 10:33:40;;;;;;;11.03;2.70;;;15.50;30.00;;;;;;4978461;28;20493;-85
2021/05/05 10:36:31;;;;;;;4.60;2.43;;;15.40;26.80;;;;;;4983517;28;20435;-86
2021/05/05 10:38:58;;;;;;;7.50;2.90;;;15.40;25.70;;;;;;4993842;28;20440;-87
2021/05/05 10:41:24;;;;;;;6.00;2.67;;;15.50;26.80;;;;;;4995378;28;20455;-86
2021/05/05 10:43:53;;;;;;;7.63;3.57;;;14.90;27.50;;;;;;5001242;28;20474;-85
2021/05/05 10:46:28;;;;;;;9.53;2.40;;;14.90;26.90;;;;;;5001508;28;20451;-86
2021/05/05 10:49:06;;;;;;;4.07;2.40;;;14.70;29.90;;;;;;4999604;28;20458;-87
2021/05/05 10:51:59;;;;;;;6.50;2.80;;;15.30;26.60;;;;;;4992620;28;20479;-87
2021/05/05 10:54:53;;;;;;;6.30;2.77;;;15.60;24.90;;;;;;4981219;28;20443;-86
2021/05/05 10:57:21;;;;;;;8.30;2.50;;;15.80;27.00;;;;;;4981153;28;20507;-86
2021/05/05 11:00:11;;;;;;;6.20;2.30;;;16.10;25.20;;;;;;4980441;28;20945;-86
2021/05/05 11:02:51;;;;;;;4.43;2.10;;;16.00;25.10;;;;;;4982438;28;20466;-86
2021/05/05 11:05:21;;;;;;;4.30;2.70;;;15.90;25.90;;;;;;4981623;28;20447;-85
2021/05/05 11:07:51;;;;;;;3.03;2.43;;;15.60;27.00;;;;;;4996637;28;20504;-86
2021/05/05 11:10:45;;;;;;;3.43;2.40;;;15.60;25.10;;;;;;4997726;28;20451;-87
2021/05/05 11:13:44;;;;;;;5.33;2.57;;;15.90;26.10;;;;;;4995754;28;20480;-86
2021/05/05 11:16:11;;;;;;;4.53;2.30;;;16.00;23.80;;;;;;4990136;28;20428;-86
2021/05/05 11:18:48;;;;;;;4.53;2.63;;;15.50;24.30;;;;;;4983360;28;20456;-86
2021/05/05 11:21:42;;;;;;;3.77;2.30;;;15.70;25.50;;;;;;4982198;28;20872;-85
2021/05/05 11:24:31;;;;;;;3.20;2.60;;;15.70;25.10;;;;;;4965980;28;20479;-86
2021/05/05 11:26:58;;;;;;;3.20;2.30;;;15.80;27.00;;;;;;4979372;28;20420;-86
2021/05/05 11:29:36;;;;;;;6.83;2.30;;;15.30;28.00;;;;;;4979501;28;20462;-86
2021/05/05 11:32:06;;;;;;;3.07;2.43;;;15.00;29.60;;;;;;4978922;28;20494;-86
2021/05/05 11:34:34;;;;;;;5.20;2.93;;;14.50;34.30;;;;;;4979701;28;20957;-86
2021/05/05 11:37:13;;;;;;;4.60;2.57;;;14.30;36.90;;;;;;4979374;28;20493;-87
2021/05/05 11:39:41;;;;;;;2.80;2.23;;;13.70;35.60;;;;;;4979240;28;20487;-86
2021/05/05 11:42:10;;;;;;;7.87;2.80;;;13.50;36.80;;;;;;4979273;28;20512;-87
2021/05/05 11:44:40;;;;;;;5.53;2.23;;;13.60;36.40;;;;;;4979474;28;21016;-86
2021/05/05 11:47:09;;;;;;;2.27;2.10;;;13.70;35.30;;;;;;4979099;28;20448;-87
2021/05/05 11:49:37;;;;;;;3.47;2.40;;;13.00;34.70;;;;;;4980110;28;20496;-86
2021/05/05 11:52:24;;;;;;;2.83;2.07;;;13.00;36.00;;;;;;4979086;28;20809;-86
2021/05/05 11:54:55;;;;;;;4.10;2.30;;;12.70;35.60;;;;;;4979661;28;20443;-86
2021/05/05 11:57:22;;;;;;;2.70;2.30;;;12.60;37.80;;;;;;4980340;28;20448;-86
2021/05/05 11:59:49;;;;;;;3.37;2.20;;;12.90;36.30;;;;;;4981230;28;20484;-86
2021/05/05 12:02:19;;;;;;;2.40;2.10;;;13.50;36.00;;;;;;4980056;28;20488;-86
2021/05/05 12:04:45;;;;;;;4.60;2.20;;;14.10;36.80;;;;;;4979388;28;20472;-86
2021/05/05 12:07:16;;;;;;;2.77;2.10;;;14.60;33.30;;;;;;4979242;28;20783;-86
2021/05/05 12:09:43;;;;;;;4.70;2.20;;;14.80;32.00;;;;;;4979211;28;20444;-86
2021/05/05 12:12:23;;;;;;;7.67;2.27;;;14.60;31.90;;;;;;4979629;28;20551;-86
2021/05/05 12:14:51;;;;;;;3.70;2.30;;;14.40;36.60;;;;;;4978792;28;20981;-86
2021/05/05 12:17:29;;;;;;;2.90;2.20;;;14.60;34.20;;;;;;4979073;28;20541;-87
2021/05/05 12:20:07;;;;;;;4.87;2.17;;;14.70;33.40;;;;;;4979844;28;20975;-86
2021/05/05 12:22:36;;;;;;;7.97;2.20;;;14.90;33.90;;;;;;4980063;28;20465;-87
2021/05/05 12:25:14;;;;;;;3.10;2.20;;;14.80;32.40;;;;;;4979511;28;20526;-86
2021/05/05 12:28:11;;;;;;;8.10;2.50;;;14.60;33.50;;;;;;4978741;28;20519;-86
2021/05/05 12:30:50;;;;;;;3.53;2.50;;;14.10;33.80;;;;;;4979255;28;20452;-86
2021/05/05 12:33:19;;;;;;;5.87;2.57;;;14.00;33.60;;;;;;4979180;28;20547;-87
2021/05/05 12:35:47;;;;;;;3.33;2.30;;;14.20;33.90;;;;;;4979521;28;20556;-86
2021/05/05 12:38:17;;;;;;;3.83;2.40;;;14.80;33.80;;;;;;4978561;28;20464;-87
2021/05/05 12:40:45;;;;;;;3.87;2.13;;;14.60;33.90;;;;;;4978581;28;20438;-87
2021/05/05 12:43:19;;;;;;;3.17;2.27;;;14.30;35.10;;;;;;4977730;28;20507;-87
2021/05/05 12:45:47;;;;;;;2.13;2.00;;;13.60;33.80;;;;;;4979560;28;20458;-87
2021/05/05 12:48:13;;;;;;;3.30;2.03;;;13.50;35.40;;;;;;4978373;28;20461;-87
2021/05/05 12:50:42;;;;;;;4.83;2.30;;;13.80;35.60;;;;;;4979257;28;20477;-87
2021/05/05 12:53:09;;;;;;;4.80;2.50;;;13.50;35.70;;;;;;4978206;28;20485;-87
2021/05/05 12:55:38;;;;;;;2.23;2.10;;;13.40;34.80;;;;;;4978774;28;20449;-87
2021/05/05 12:58:08;;;;;;;2.27;2.13;;;13.70;35.20;;;;;;4978265;28;20445;-86
2021/05/05 13:00:38;;;;;;;10.60;2.33;;;13.80;34.00;;;;;;4979051;28;20507;-86
2021/05/05 13:03:10;;;;;;;2.77;2.13;;;14.00;35.20;;;;;;4978285;28;20461;-86
2021/05/05 13:05:58;;;;;;;6.47;2.30;;;14.00;33.20;;;;;;4979566;28;20544;-87